Weather at Río Exploradores Airport

Public forecast

Using degrees Celsius for public forecast. Weather courtesy of forecast.io.

Closest aviation weather report (METAR) to Río Exploradores Airport

Report is more than 6 hours old.

Closest report is Cochrane Airport, 61.5 nm (113.9 km) SSE. Retrieved 2021/07/23 20:00 UTC (1 day ago):

SCHR 232000Z 31008KT 9999 FEW040 07/01 Q1014

Closest aviation forecast (TAF) to Río Exploradores Airport

Forecast is more than 6 hours old.

Closest forecast is Teniente Vidal Airport, 68.4 nm (126.7 km) NE. Retrieved 2021/07/24 12:33 UTC (11 hours ago):

TAF SCCY 241110Z 2412/2424 03006KT 9999 FEW003 TN01/2412Z TX08/2418Z BECMG 2413/2415 CAVOK BECMG 2416/2418 VRB03KT